createdAt,value
2018-08-06T00:01:28.739Z,20.28
2018-08-06T00:02:28.758Z,20.29
2018-08-06T00:04:21.692Z,20.20
2018-08-06T00:05:21.695Z,20.23
2018-08-06T00:07:14.637Z,20.24
2018-08-06T00:08:14.637Z,20.13
2018-08-06T00:10:07.553Z,20.13
2018-08-06T00:11:07.569Z,20.14
2018-08-06T00:13:00.505Z,20.13
2018-08-06T00:14:00.505Z,19.99
2018-08-06T00:15:53.419Z,20.06
2018-08-06T00:16:53.440Z,19.99
2018-08-06T00:18:46.376Z,20.01
2018-08-06T00:19:46.382Z,19.96
2018-08-06T00:21:39.290Z,19.91
2018-08-06T00:22:39.317Z,19.86
2018-08-06T00:24:32.246Z,19.86
2018-08-06T00:25:32.265Z,19.78
2018-08-06T00:27:25.192Z,19.81
2018-08-06T00:28:25.186Z,19.81
2018-08-06T00:30:18.106Z,19.81
2018-08-06T00:31:18.119Z,19.76
2018-08-06T00:33:11.074Z,19.73
2018-08-06T00:34:11.080Z,19.73
2018-08-06T00:36:03.983Z,19.74
2018-08-06T00:37:04.009Z,19.54
2018-08-06T00:38:56.943Z,19.63
2018-08-06T00:39:56.941Z,19.58
2018-08-06T00:41:49.853Z,19.58
2018-08-06T00:42:49.877Z,19.51
2018-08-06T00:44:42.809Z,19.56
2018-08-06T00:45:42.811Z,19.51
2018-08-06T00:47:35.746Z,19.47
2018-08-06T00:48:35.744Z,19.48
2018-08-06T00:50:28.654Z,19.44
2018-08-06T00:51:28.675Z,19.43
2018-08-06T00:53:21.608Z,19.39
2018-08-06T00:54:21.610Z,19.29
2018-08-06T00:56:14.522Z,19.29
2018-08-06T00:57:14.543Z,19.26
2018-08-06T00:59:07.474Z,19.29
2018-08-06T01:00:07.476Z,19.31
2018-08-06T01:02:00.392Z,19.22
2018-08-06T01:03:00.409Z,19.23
2018-08-06T01:04:53.341Z,19.26
2018-08-06T01:05:53.345Z,19.25
2018-08-06T01:07:46.265Z,19.26
2018-08-06T01:08:46.280Z,19.28
2018-08-06T01:10:39.245Z,19.26
2018-08-06T01:11:39.224Z,19.19
2018-08-06T01:13:32.155Z,19.26
2018-08-06T01:14:32.155Z,19.32
2018-08-06T01:16:25.061Z,19.22
2018-08-06T01:17:25.080Z,19.28
2018-08-06T01:19:18.015Z,19.31
2018-08-06T01:20:18.013Z,19.21
2018-08-06T01:22:10.945Z,19.19
2018-08-06T01:23:10.963Z,19.21
2018-08-06T01:25:03.882Z,19.26
2018-08-06T01:26:03.883Z,19.13
2018-08-06T01:27:56.790Z,19.21
2018-08-06T01:28:56.818Z,19.06
2018-08-06T01:30:49.744Z,19.07
2018-08-06T01:31:49.745Z,18.99
2018-08-06T01:33:42.678Z,18.98
2018-08-06T01:34:42.680Z,18.84
2018-08-06T01:36:35.600Z,18.87
2018-08-06T01:37:35.619Z,18.82
2018-08-06T01:39:28.549Z,18.78
2018-08-06T01:40:28.560Z,18.76
2018-08-06T01:42:21.465Z,18.66
2018-08-06T01:43:21.493Z,18.67
2018-08-06T01:45:14.450Z,18.69
2018-08-06T01:46:14.420Z,18.66
2018-08-06T01:48:07.351Z,18.52
2018-08-06T01:49:07.374Z,18.55
2018-08-06T01:51:00.305Z,18.50
2018-08-06T01:52:00.309Z,18.47
2018-08-06T01:53:53.237Z,18.30
2018-08-06T01:54:53.242Z,18.35
2018-08-06T01:56:46.149Z,18.29
2018-08-06T01:57:46.173Z,18.36
2018-08-06T01:59:39.101Z,18.44
2018-08-06T02:00:39.102Z,18.42
2018-08-06T02:02:32.014Z,18.42
2018-08-06T02:03:32.040Z,18.44
2018-08-06T02:05:24.962Z,18.47
2018-08-06T02:06:24.966Z,18.42
2018-08-06T02:08:17.886Z,18.44
2018-08-06T02:09:17.899Z,18.37
2018-08-06T02:11:10.835Z,18.33
2018-08-06T02:12:10.842Z,18.35
2018-08-06T02:14:03.764Z,18.27
2018-08-06T02:15:03.772Z,18.37
2018-08-06T02:16:56.676Z,18.18
2018-08-06T02:17:56.699Z,18.20
2018-08-06T02:19:49.630Z,18.27
2018-08-06T02:20:49.634Z,18.20
2018-08-06T02:22:42.545Z,18.17
2018-08-06T02:23:42.592Z,18.00
2018-08-06T02:25:35.496Z,18.08
2018-08-06T02:26:35.495Z,18.08
2018-08-06T02:28:28.406Z,18.03
2018-08-06T02:29:28.427Z,18.10
2018-08-06T02:31:21.358Z,18.10
2018-08-06T02:32:21.358Z,18.11
2018-08-06T02:34:14.348Z,18.02
2018-08-06T02:35:14.325Z,18.03
2018-08-06T02:37:07.204Z,17.97
2018-08-06T02:38:07.219Z,17.99
2018-08-06T02:40:00.159Z,17.92
2018-08-06T02:41:00.164Z,17.97
2018-08-06T02:42:53.067Z,17.99
2018-08-06T02:43:53.089Z,17.97
2018-08-06T02:45:46.018Z,18.03
2018-08-06T02:46:46.064Z,18.08
2018-08-06T02:48:38.930Z,18.05
2018-08-06T02:49:38.950Z,18.02
2018-08-06T02:51:31.880Z,18.02
2018-08-06T02:52:31.882Z,18.02
2018-08-06T02:54:24.811Z,17.99
2018-08-06T02:55:24.818Z,17.89
2018-08-06T02:57:17.722Z,17.84
2018-08-06T02:58:17.747Z,17.79
2018-08-06T03:00:10.757Z,17.90
2018-08-06T03:01:10.688Z,17.86
2018-08-06T03:03:03.584Z,17.89
2018-08-06T03:04:03.603Z,17.81
2018-08-06T03:05:56.542Z,17.81
2018-08-06T03:06:56.535Z,17.74
2018-08-06T03:08:49.447Z,17.81
2018-08-06T03:09:49.491Z,17.77
2018-08-06T03:11:42.399Z,17.71
2018-08-06T03:12:42.399Z,17.63
2018-08-06T03:14:35.328Z,17.49
2018-08-06T03:15:35.330Z,17.58
2018-08-06T03:17:28.242Z,17.44
2018-08-06T03:18:28.265Z,17.41
2018-08-06T03:20:21.190Z,17.49
2018-08-06T03:21:21.192Z,17.46
2018-08-06T03:23:14.122Z,17.48
2018-08-06T03:24:14.122Z,17.48
2018-08-06T03:26:07.065Z,17.43
2018-08-06T03:27:07.052Z,17.37
2018-08-06T03:28:59.970Z,17.37
2018-08-06T03:29:59.984Z,17.28
2018-08-06T03:31:52.923Z,17.26
2018-08-06T03:32:52.913Z,17.31
2018-08-06T03:34:45.846Z,17.19
2018-08-06T03:35:45.843Z,17.19
2018-08-06T03:37:38.751Z,17.18
2018-08-06T03:38:38.773Z,17.12
2018-08-06T03:40:31.705Z,17.16
2018-08-06T03:41:31.703Z,17.16
2018-08-06T03:43:24.614Z,17.07
2018-08-06T03:44:24.634Z,17.06
2018-08-06T03:46:17.563Z,17.00
2018-08-06T03:47:17.569Z,17.01
2018-08-06T03:49:10.470Z,17.00
2018-08-06T03:50:10.492Z,17.04
2018-08-06T03:52:03.421Z,16.97
2018-08-06T03:53:03.434Z,17.00
2018-08-06T03:54:56.352Z,17.00
2018-08-06T03:55:56.355Z,17.00
2018-08-06T03:57:49.265Z,16.98
2018-08-06T03:58:49.294Z,16.94
2018-08-06T04:00:42.219Z,16.97
2018-08-06T04:01:42.216Z,17.01
2018-08-06T04:03:35.130Z,16.97
2018-08-06T04:04:35.158Z,16.97
2018-08-06T04:06:28.083Z,17.11
2018-08-06T04:07:28.085Z,16.98
2018-08-06T04:09:20.993Z,17.11
2018-08-06T04:10:21.014Z,17.08
2018-08-06T04:12:13.942Z,16.96
2018-08-06T04:13:13.944Z,16.96
2018-08-06T04:15:06.870Z,16.88
2018-08-06T04:16:06.873Z,16.96
2018-08-06T04:17:59.783Z,16.91
2018-08-06T04:18:59.803Z,16.94
2018-08-06T04:20:52.733Z,16.94
2018-08-06T04:21:52.733Z,16.97
2018-08-06T04:23:45.638Z,17.12
2018-08-06T04:24:45.663Z,17.21
2018-08-06T04:26:38.586Z,17.52
2018-08-06T04:27:38.587Z,17.71
2018-08-06T04:29:31.498Z,17.84
2018-08-06T04:30:31.518Z,17.97
2018-08-06T04:32:24.459Z,18.33
2018-08-06T04:33:24.451Z,18.65
2018-08-06T04:35:17.384Z,19.14
2018-08-06T04:36:17.386Z,19.32
2018-08-06T04:38:10.371Z,19.47
2018-08-06T04:39:10.393Z,19.39
2018-08-06T04:41:03.331Z,19.39
2018-08-06T04:42:03.327Z,19.44
2018-08-06T04:43:56.239Z,19.68
2018-08-06T04:44:56.262Z,19.95
2018-08-06T04:46:49.205Z,20.42
2018-08-06T04:47:49.197Z,20.74
2018-08-06T04:49:42.118Z,21.16
2018-08-06T04:50:42.140Z,21.27
2018-08-06T04:52:35.071Z,21.64
2018-08-06T04:53:35.079Z,21.82
2018-08-06T04:55:28.011Z,22.02
2018-08-06T04:56:28.020Z,22.24
2018-08-06T04:58:20.928Z,22.72
2018-08-06T04:59:20.958Z,22.94
2018-08-06T05:01:13.888Z,22.92
2018-08-06T05:02:13.897Z,22.86
2018-08-06T05:04:06.810Z,23.05
2018-08-06T05:05:06.838Z,23.05
2018-08-06T05:06:59.817Z,23.27
2018-08-06T05:07:59.781Z,23.31
2018-08-06T05:09:52.721Z,23.17
2018-08-06T05:10:52.744Z,23.22
2018-08-06T05:12:45.666Z,22.91
2018-08-06T05:13:45.714Z,22.75
2018-08-06T05:15:38.618Z,22.40
2018-08-06T05:16:38.617Z,22.25
2018-08-06T05:18:31.533Z,22.02
2018-08-06T05:19:31.622Z,21.94
2018-08-06T05:21:24.487Z,21.72
2018-08-06T05:22:24.493Z,21.59
2018-08-06T05:24:17.411Z,21.53
2018-08-06T05:25:17.438Z,21.40
2018-08-06T05:27:10.370Z,21.32
2018-08-06T05:28:10.381Z,21.35
2018-08-06T05:30:03.293Z,21.22
2018-08-06T05:31:03.320Z,21.32
2018-08-06T05:32:56.249Z,21.21
2018-08-06T05:33:56.254Z,21.22
2018-08-06T05:35:49.191Z,21.19
2018-08-06T05:36:49.191Z,21.17
2018-08-06T05:38:42.103Z,21.25
2018-08-06T05:39:42.126Z,21.12
2018-08-06T05:41:35.062Z,21.29
2018-08-06T05:42:35.068Z,21.28
2018-08-06T05:44:27.988Z,21.28
2018-08-06T05:45:28.001Z,21.27
2018-08-06T05:47:20.948Z,21.34
2018-08-06T05:48:20.993Z,21.37
2018-08-06T05:50:13.869Z,21.52
2018-08-06T05:51:13.890Z,21.46
2018-08-06T05:53:06.881Z,21.49
2018-08-06T05:54:06.841Z,21.49
2018-08-06T05:55:59.753Z,21.62
2018-08-06T05:56:59.772Z,21.61
2018-08-06T05:58:52.674Z,21.53
2018-08-06T05:59:52.800Z,21.56
2018-08-06T06:01:45.698Z,21.53
2018-08-06T06:02:45.639Z,21.56
2018-08-06T06:04:38.553Z,21.61
2018-08-06T06:05:38.622Z,21.71
2018-08-06T06:07:31.512Z,22.27
2018-08-06T06:08:31.522Z,22.45
2018-08-06T06:10:24.442Z,22.88
2018-08-06T06:11:24.467Z,23.39
2018-08-06T06:13:17.413Z,24.10
2018-08-06T06:14:17.421Z,24.64
2018-08-06T06:16:10.368Z,25.55
2018-08-06T06:17:10.368Z,25.82
2018-08-06T06:19:03.322Z,26.10
2018-08-06T06:20:03.313Z,26.32
2018-08-06T06:21:56.252Z,26.87
2018-08-06T06:22:56.261Z,27.13
2018-08-06T06:24:49.185Z,27.50
2018-08-06T06:25:49.217Z,27.99
2018-08-06T06:27:42.163Z,28.14
2018-08-06T06:28:42.244Z,28.15
2018-08-06T06:30:35.096Z,28.55
2018-08-06T06:31:35.120Z,28.67
2018-08-06T06:33:28.066Z,28.83
2018-08-06T06:34:28.122Z,28.92
2018-08-06T06:36:21.015Z,28.73
2018-08-06T06:37:21.045Z,28.98
2018-08-06T06:39:13.989Z,29.12
2018-08-06T06:40:14.000Z,29.33
2018-08-06T06:42:06.953Z,29.33
2018-08-06T06:43:06.963Z,29.46
2018-08-06T06:44:59.900Z,29.65
2018-08-06T06:45:59.932Z,29.57
2018-08-06T06:47:52.885Z,29.53
2018-08-06T06:48:52.909Z,29.65
2018-08-06T06:50:45.820Z,29.65
2018-08-06T06:51:45.850Z,29.52
2018-08-06T06:53:38.806Z,29.28
2018-08-06T06:54:38.815Z,28.85
2018-08-06T06:56:31.744Z,28.98
2018-08-06T06:57:31.799Z,28.64
2018-08-06T06:59:24.726Z,28.83
2018-08-06T07:00:24.738Z,28.89
2018-08-06T07:02:17.693Z,28.86
2018-08-06T07:03:17.702Z,28.67
2018-08-06T07:05:10.632Z,28.21
2018-08-06T07:06:10.668Z,28.41
2018-08-06T07:08:03.623Z,28.59
2018-08-06T07:09:03.628Z,28.62
2018-08-06T07:10:56.558Z,28.70
2018-08-06T07:11:56.592Z,28.93
2018-08-06T07:13:49.673Z,28.80
2018-08-06T07:14:49.566Z,28.76
2018-08-06T07:16:42.505Z,28.74
2018-08-06T07:17:42.543Z,28.68
2018-08-06T07:19:35.492Z,28.51
2018-08-06T07:20:35.516Z,28.17
2018-08-06T07:22:28.453Z,27.92
2018-08-06T07:23:28.456Z,27.63
2018-08-06T07:25:21.386Z,27.40
2018-08-06T07:26:21.415Z,27.31
2018-08-06T07:28:14.370Z,27.17
2018-08-06T07:29:14.381Z,27.12
2018-08-06T07:31:07.305Z,27.12
2018-08-06T07:32:07.334Z,27.02
2018-08-06T07:34:00.286Z,27.03
2018-08-06T07:35:00.290Z,27.06
2018-08-06T07:36:53.217Z,26.99
2018-08-06T07:37:53.243Z,27.02
2018-08-06T07:39:46.183Z,27.03
2018-08-06T07:40:46.190Z,26.94
2018-08-06T07:42:39.132Z,27.18
2018-08-06T07:43:39.143Z,27.34
2018-08-06T07:45:32.061Z,27.44
2018-08-06T07:46:32.090Z,27.49
2018-08-06T07:48:25.032Z,27.60
2018-08-06T07:49:25.058Z,27.66
2018-08-06T07:51:17.966Z,27.69
2018-08-06T07:52:17.992Z,27.75
2018-08-06T07:54:10.935Z,27.72
2018-08-06T07:55:10.942Z,27.66
2018-08-06T07:57:03.876Z,27.66
2018-08-06T07:58:03.896Z,27.67
2018-08-06T07:59:56.842Z,27.54
2018-08-06T08:00:56.850Z,27.41
2018-08-06T08:02:49.796Z,27.29
2018-08-06T08:03:49.802Z,27.43
2018-08-06T08:05:42.723Z,27.49
2018-08-06T08:06:42.771Z,27.59
2018-08-06T08:08:35.693Z,27.79
2018-08-06T08:09:35.702Z,27.93
2018-08-06T08:11:28.631Z,27.97
2018-08-06T08:12:28.658Z,28.17
2018-08-06T08:14:21.607Z,28.22
2018-08-06T08:15:21.612Z,28.27
2018-08-06T08:17:14.534Z,28.33
2018-08-06T08:18:14.562Z,28.39
2018-08-06T08:20:07.618Z,28.59
2018-08-06T08:21:07.514Z,28.61
2018-08-06T08:23:00.456Z,28.62
2018-08-06T08:24:00.465Z,28.74
2018-08-06T08:25:53.386Z,28.74
2018-08-06T08:26:53.419Z,28.67
2018-08-06T08:28:46.357Z,28.64
2018-08-06T08:29:46.365Z,28.54
2018-08-06T08:31:39.286Z,28.64
2018-08-06T08:32:39.315Z,28.59
2018-08-06T08:34:32.259Z,28.31
2018-08-06T08:35:32.268Z,28.31
2018-08-06T08:37:25.191Z,28.39
2018-08-06T08:38:25.221Z,28.40
2018-08-06T08:40:18.187Z,28.39
2018-08-06T08:41:18.174Z,28.31
2018-08-06T08:43:11.224Z,28.34
2018-08-06T08:44:11.129Z,28.31
2018-08-06T08:46:04.059Z,28.54
2018-08-06T08:47:04.087Z,28.55
2018-08-06T08:48:57.030Z,28.66
2018-08-06T08:49:57.038Z,28.64
2018-08-06T08:51:49.964Z,28.49
2018-08-06T08:52:49.991Z,28.21
2018-08-06T08:54:42.940Z,28.31
2018-08-06T08:55:42.943Z,28.34
2018-08-06T08:57:35.879Z,28.51
2018-08-06T08:58:35.985Z,28.51
2018-08-06T09:00:28.876Z,28.67
2018-08-06T09:01:28.857Z,28.67
2018-08-06T09:03:21.796Z,28.85
2018-08-06T09:04:21.805Z,28.88
2018-08-06T09:06:14.729Z,29.06
2018-08-06T09:07:14.838Z,29.02
2018-08-06T09:09:07.707Z,28.95
2018-08-06T09:10:07.711Z,28.85
2018-08-06T09:12:00.639Z,28.96
2018-08-06T09:13:00.665Z,29.00
2018-08-06T09:14:53.608Z,28.98
2018-08-06T09:15:53.640Z,28.88
2018-08-06T09:17:46.534Z,28.92
2018-08-06T09:18:46.566Z,28.98
2018-08-06T09:20:39.514Z,28.71
2018-08-06T09:21:39.519Z,28.76
2018-08-06T09:23:32.461Z,28.71
2018-08-06T09:24:32.471Z,28.71
2018-08-06T09:26:25.404Z,28.81
2018-08-06T09:27:25.428Z,28.89
2018-08-06T09:29:18.372Z,28.77
2018-08-06T09:30:18.378Z,28.76
2018-08-06T09:32:11.305Z,28.92
2018-08-06T09:33:11.333Z,28.98
2018-08-06T09:35:04.277Z,28.85
2018-08-06T09:36:04.294Z,28.85
2018-08-06T09:37:57.211Z,28.76
2018-08-06T09:38:57.238Z,28.83
2018-08-06T09:40:50.198Z,28.88
2018-08-06T09:41:50.200Z,28.89
2018-08-06T09:43:43.150Z,29.15
2018-08-06T09:44:43.157Z,29.16
2018-08-06T09:46:36.080Z,29.27
2018-08-06T09:47:36.131Z,29.16
2018-08-06T09:49:29.063Z,29.11
2018-08-06T09:50:29.072Z,29.09
2018-08-06T09:52:21.994Z,29.16
2018-08-06T09:53:22.023Z,29.23
2018-08-06T09:55:14.966Z,29.51
2018-08-06T09:56:14.976Z,29.58
2018-08-06T09:58:07.899Z,29.80
2018-08-06T09:59:07.926Z,29.82
2018-08-06T10:01:00.881Z,29.86
2018-08-06T10:02:00.880Z,29.78
2018-08-06T10:03:53.834Z,29.92
2018-08-06T10:04:53.840Z,29.97
2018-08-06T10:06:47.010Z,29.97
2018-08-06T10:07:46.790Z,29.97
2018-08-06T10:09:39.740Z,30.02
2018-08-06T10:10:39.740Z,29.97
2018-08-06T10:12:32.672Z,30.04
2018-08-06T10:13:32.701Z,30.11
2018-08-06T10:15:25.643Z,30.32
2018-08-06T10:16:25.664Z,30.38
2018-08-06T10:18:18.576Z,30.46
2018-08-06T10:19:18.712Z,30.20
2018-08-06T10:21:11.547Z,30.13
2018-08-06T10:22:11.555Z,29.97
2018-08-06T10:24:04.504Z,30.13
2018-08-06T10:25:04.512Z,30.11
2018-08-06T10:26:57.439Z,30.26
2018-08-06T10:27:57.464Z,30.29
2018-08-06T10:29:50.409Z,30.45
2018-08-06T10:30:50.417Z,30.49
2018-08-06T10:32:43.351Z,30.73
2018-08-06T10:33:43.384Z,30.70
2018-08-06T10:35:36.319Z,30.80
2018-08-06T10:36:36.377Z,30.84
2018-08-06T10:38:30.281Z,30.94
2018-08-06T10:39:30.311Z,31.07
2018-08-06T10:41:23.283Z,31.23
2018-08-06T10:42:23.263Z,31.25
2018-08-06T10:44:16.279Z,31.31
2018-08-06T10:45:16.284Z,31.31
2018-08-06T10:47:09.164Z,31.20
2018-08-06T10:48:09.195Z,31.21
2018-08-06T10:50:02.216Z,31.09
2018-08-06T10:51:02.167Z,30.98
2018-08-06T10:52:55.105Z,30.69
2018-08-06T10:53:55.183Z,30.62
2018-08-06T10:55:48.117Z,30.57
2018-08-06T10:56:48.109Z,30.61
2018-08-06T10:58:41.096Z,30.91
2018-08-06T10:59:41.122Z,30.92
2018-08-06T11:01:34.079Z,31.07
2018-08-06T11:02:34.038Z,31.19
2018-08-06T11:04:27.051Z,31.29
2018-08-06T11:05:27.092Z,31.39
2018-08-06T11:07:19.971Z,31.44
2018-08-06T11:08:19.980Z,31.44
2018-08-06T11:10:12.993Z,31.31
2018-08-06T11:11:12.957Z,31.28
2018-08-06T11:13:05.881Z,30.95
2018-08-06T11:14:05.957Z,31.07
2018-08-06T11:15:58.856Z,30.98
2018-08-06T11:16:58.865Z,30.83
2018-08-06T11:18:51.790Z,31.09
2018-08-06T11:19:51.821Z,31.25
2018-08-06T11:21:44.771Z,31.43
2018-08-06T11:22:44.781Z,31.46
2018-08-06T11:24:37.734Z,31.76
2018-08-06T11:25:37.734Z,31.88
2018-08-06T11:27:30.658Z,32.10
2018-08-06T11:28:30.723Z,32.22
2018-08-06T11:30:23.640Z,32.30
2018-08-06T11:31:23.644Z,32.35
2018-08-06T11:33:16.571Z,32.44
2018-08-06T11:34:16.606Z,32.45
2018-08-06T11:36:09.553Z,32.43
2018-08-06T11:37:09.555Z,32.43
2018-08-06T11:39:02.489Z,32.28
2018-08-06T11:40:02.513Z,32.30
2018-08-06T11:41:55.459Z,32.14
2018-08-06T11:42:55.470Z,32.18
2018-08-06T11:44:48.414Z,32.11
2018-08-06T11:45:48.424Z,32.11
2018-08-06T11:47:41.383Z,32.18
2018-08-06T11:48:41.390Z,32.30
2018-08-06T11:50:34.343Z,32.30
2018-08-06T11:51:34.404Z,32.40
2018-08-06T11:53:27.276Z,32.50
2018-08-06T11:54:27.308Z,32.55
2018-08-06T11:56:20.260Z,32.63
2018-08-06T11:57:20.273Z,32.48
2018-08-06T11:59:13.190Z,32.63
2018-08-06T12:00:13.219Z,32.59
2018-08-06T12:02:06.178Z,32.72
2018-08-06T12:03:06.190Z,32.75
2018-08-06T12:04:59.133Z,32.60
2018-08-06T12:05:59.144Z,32.63
2018-08-06T12:07:52.096Z,32.60
2018-08-06T12:08:52.104Z,32.69
2018-08-06T12:10:45.050Z,32.87
2018-08-06T12:11:45.055Z,32.82
2018-08-06T12:13:38.015Z,32.92
2018-08-06T12:14:38.014Z,32.93
2018-08-06T12:16:30.956Z,33.09
2018-08-06T12:17:30.966Z,33.07
2018-08-06T12:19:23.891Z,32.84
2018-08-06T12:20:23.962Z,32.84
2018-08-06T12:22:16.867Z,32.87
2018-08-06T12:23:16.879Z,32.93
2018-08-06T12:25:09.805Z,32.93
2018-08-06T12:26:09.976Z,32.60
2018-08-06T12:28:02.785Z,32.59
2018-08-06T12:29:02.793Z,32.57
2018-08-06T12:30:55.738Z,32.79
2018-08-06T12:31:55.749Z,32.84
2018-08-06T12:33:48.676Z,32.88
2018-08-06T12:34:48.711Z,33.14
2018-08-06T12:36:41.660Z,33.04
2018-08-06T12:37:41.667Z,33.16
2018-08-06T12:39:34.623Z,33.29
2018-08-06T12:40:34.647Z,33.34
2018-08-06T12:42:27.599Z,33.21
2018-08-06T12:43:27.608Z,33.01
2018-08-06T12:45:20.536Z,33.18
2018-08-06T12:46:20.679Z,33.14
2018-08-06T12:48:13.517Z,33.19
2018-08-06T12:49:13.523Z,33.11
2018-08-06T12:51:06.475Z,32.81
2018-08-06T12:52:06.484Z,32.74
2018-08-06T12:53:59.412Z,32.78
2018-08-06T12:54:59.440Z,32.69
2018-08-06T12:56:52.387Z,32.60
2018-08-06T12:57:52.396Z,32.62
2018-08-06T12:59:45.328Z,32.85
2018-08-06T13:00:45.356Z,32.93
2018-08-06T13:02:38.308Z,33.11
2018-08-06T13:03:38.319Z,33.14
2018-08-06T13:05:31.250Z,33.18
2018-08-06T13:06:31.287Z,33.21
2018-08-06T13:08:24.226Z,33.37
2018-08-06T13:09:24.231Z,33.35
2018-08-06T13:11:17.179Z,33.49
2018-08-06T13:12:17.195Z,33.60
2018-08-06T13:14:10.116Z,33.22
2018-08-06T13:15:10.149Z,33.32
2018-08-06T13:17:03.093Z,33.16
2018-08-06T13:18:03.131Z,33.19
2018-08-06T13:19:56.040Z,33.18
2018-08-06T13:20:56.077Z,33.19
2018-08-06T13:22:49.029Z,33.28
2018-08-06T13:23:49.034Z,33.29
2018-08-06T13:25:41.957Z,33.37
2018-08-06T13:26:41.989Z,33.45
2018-08-06T13:28:34.942Z,33.63
2018-08-06T13:29:34.948Z,33.71
2018-08-06T13:31:27.896Z,33.93
2018-08-06T13:32:27.906Z,33.93
2018-08-06T13:34:20.834Z,33.98
2018-08-06T13:35:20.862Z,34.08
2018-08-06T13:37:13.808Z,34.17
2018-08-06T13:38:13.829Z,34.25
2018-08-06T13:40:06.746Z,34.31
2018-08-06T13:41:06.777Z,34.37
2018-08-06T13:42:59.739Z,34.43
2018-08-06T13:43:59.739Z,34.37
2018-08-06T13:45:52.674Z,34.28
2018-08-06T13:46:52.740Z,34.25
2018-08-06T13:48:45.728Z,34.09
2018-08-06T13:49:45.661Z,34.15
2018-08-06T13:51:38.615Z,34.15
2018-08-06T13:52:38.633Z,34.16
2018-08-06T13:54:31.558Z,34.09
2018-08-06T13:55:31.591Z,34.12
2018-08-06T13:57:24.551Z,34.25
2018-08-06T13:58:24.560Z,34.31
2018-08-06T14:00:17.485Z,34.35
2018-08-06T14:01:17.519Z,34.31
2018-08-06T14:03:10.466Z,34.31
2018-08-06T14:04:10.477Z,34.34
2018-08-06T14:06:03.405Z,34.37
2018-08-06T14:07:03.476Z,34.44
2018-08-06T14:08:56.390Z,34.46
2018-08-06T14:09:56.396Z,34.47
2018-08-06T14:11:49.347Z,34.54
2018-08-06T14:12:49.358Z,34.56
2018-08-06T14:14:42.286Z,34.52
2018-08-06T14:15:42.319Z,34.49
2018-08-06T14:17:35.281Z,34.56
2018-08-06T14:18:35.280Z,34.61
2018-08-06T14:20:28.212Z,34.81
2018-08-06T14:21:28.241Z,34.72
2018-08-06T14:23:21.201Z,34.69
2018-08-06T14:24:21.206Z,34.75
2018-08-06T14:26:14.135Z,34.72
2018-08-06T14:27:14.168Z,34.84
2018-08-06T14:29:07.121Z,34.97
2018-08-06T14:30:07.130Z,34.96
2018-08-06T14:32:00.092Z,34.80
2018-08-06T14:33:00.098Z,34.69
2018-08-06T14:34:53.035Z,34.49
2018-08-06T14:35:53.064Z,34.24
2018-08-06T14:37:46.018Z,34.25
2018-08-06T14:38:46.026Z,34.24
2018-08-06T14:40:38.957Z,34.21
2018-08-06T14:41:38.986Z,34.15
2018-08-06T14:43:31.940Z,34.28
2018-08-06T14:44:31.946Z,34.34
2018-08-06T14:46:24.874Z,34.53
2018-08-06T14:47:24.907Z,34.53
2018-08-06T14:49:17.990Z,34.44
2018-08-06T14:50:18.005Z,34.50
2018-08-06T14:52:10.967Z,34.73
2018-08-06T14:53:10.964Z,34.77
2018-08-06T14:55:03.901Z,34.89
2018-08-06T14:56:03.934Z,34.91
2018-08-06T14:57:56.885Z,35.03
2018-08-06T14:58:56.893Z,34.97
2018-08-06T15:00:49.955Z,35.06
2018-08-06T15:01:49.986Z,34.96
2018-08-06T15:03:42.941Z,34.96
2018-08-06T15:04:42.952Z,34.94
2018-08-06T15:06:35.879Z,34.87
2018-08-06T15:07:35.910Z,34.92
2018-08-06T15:09:28.866Z,34.87
2018-08-06T15:10:28.877Z,34.89
2018-08-06T15:12:21.831Z,34.92
2018-08-06T15:13:21.836Z,34.91
2018-08-06T15:15:14.858Z,34.97
2018-08-06T15:16:14.804Z,35.10
2018-08-06T15:18:07.772Z,35.15
2018-08-06T15:19:07.767Z,35.21
2018-08-06T15:21:00.704Z,35.26
2018-08-06T15:22:00.728Z,35.21
2018-08-06T15:23:53.675Z,35.28
2018-08-06T15:24:53.688Z,35.26
2018-08-06T15:26:46.618Z,35.21
2018-08-06T15:27:46.653Z,35.31
2018-08-06T15:29:39.606Z,35.36
2018-08-06T15:30:39.632Z,35.37
2018-08-06T15:32:32.713Z,35.37
2018-08-06T15:33:32.727Z,35.37
2018-08-06T15:35:25.655Z,35.38
2018-08-06T15:36:25.687Z,35.37
2018-08-06T15:38:18.642Z,35.40
2018-08-06T15:39:18.652Z,35.34
2018-08-06T15:41:11.586Z,35.43
2018-08-06T15:42:11.613Z,35.37
2018-08-06T15:44:04.733Z,35.38
2018-08-06T15:45:04.746Z,35.34
2018-08-06T15:46:57.675Z,35.37
2018-08-06T15:47:57.706Z,35.38
2018-08-06T15:49:50.662Z,35.40
2018-08-06T15:50:50.672Z,35.38
2018-08-06T15:52:43.628Z,35.38
2018-08-06T15:53:43.631Z,35.38
2018-08-06T15:55:36.589Z,35.29
2018-08-06T15:56:36.601Z,35.40
2018-08-06T15:58:29.553Z,35.47
2018-08-06T15:59:29.563Z,35.48
2018-08-06T16:01:22.491Z,35.47
2018-08-06T16:02:22.524Z,35.41
2018-08-06T16:04:15.479Z,35.36
2018-08-06T16:05:15.486Z,35.34
2018-08-06T16:07:08.418Z,35.37
2018-08-06T16:08:08.450Z,35.38
2018-08-06T16:10:01.417Z,35.25
2018-08-06T16:11:01.413Z,35.16
2018-08-06T16:12:54.367Z,35.07
2018-08-06T16:13:54.377Z,35.10
2018-08-06T16:15:48.322Z,35.21
2018-08-06T16:16:48.354Z,35.19
2018-08-06T16:18:41.308Z,35.22
2018-08-06T16:19:41.322Z,35.31
2018-08-06T16:21:34.258Z,35.10
2018-08-06T16:22:34.290Z,35.03
2018-08-06T16:24:27.238Z,35.00
2018-08-06T16:25:27.252Z,34.97
2018-08-06T16:27:20.181Z,34.88
2018-08-06T16:28:20.215Z,34.82
2018-08-06T16:30:13.169Z,34.56
2018-08-06T16:31:13.280Z,34.62
2018-08-06T16:33:06.130Z,34.73
2018-08-06T16:34:06.140Z,34.80
2018-08-06T16:35:59.068Z,34.81
2018-08-06T16:36:59.104Z,34.84
2018-08-06T16:38:52.056Z,34.91
2018-08-06T16:39:52.063Z,34.89
2018-08-06T16:41:44.995Z,34.92
2018-08-06T16:42:45.027Z,34.89
2018-08-06T16:44:37.985Z,34.92
2018-08-06T16:45:38.007Z,35.03
2018-08-06T16:47:30.924Z,35.00
2018-08-06T16:48:30.954Z,35.03
2018-08-06T16:50:23.914Z,35.06
2018-08-06T16:51:23.927Z,35.03
2018-08-06T16:53:16.883Z,35.03
2018-08-06T16:54:16.889Z,35.03
2018-08-06T16:56:09.820Z,35.02
2018-08-06T16:57:09.853Z,35.04
2018-08-06T16:59:02.806Z,35.03
2018-08-06T17:00:02.813Z,35.03
2018-08-06T17:01:55.743Z,35.02
2018-08-06T17:02:55.883Z,35.02
2018-08-06T17:04:48.725Z,34.94
2018-08-06T17:05:48.752Z,34.96
2018-08-06T17:07:41.669Z,34.92
2018-08-06T17:08:41.704Z,35.03
2018-08-06T17:10:34.673Z,34.91
2018-08-06T17:11:34.659Z,34.91
2018-08-06T17:13:27.629Z,34.88
2018-08-06T17:14:27.626Z,34.85
2018-08-06T17:16:20.553Z,34.87
2018-08-06T17:17:20.585Z,34.85
2018-08-06T17:19:13.544Z,34.94
2018-08-06T17:20:13.558Z,34.81
2018-08-06T17:22:06.500Z,34.72
2018-08-06T17:23:06.507Z,34.77
2018-08-06T17:24:59.462Z,34.66
2018-08-06T17:25:59.471Z,34.62
2018-08-06T17:27:52.408Z,34.59
2018-08-06T17:28:52.441Z,34.64
2018-08-06T17:30:46.385Z,34.58
2018-08-06T17:31:46.398Z,34.65
2018-08-06T17:33:39.362Z,34.49
2018-08-06T17:34:39.359Z,34.50
2018-08-06T17:36:32.339Z,34.40
2018-08-06T17:37:32.322Z,34.35
2018-08-06T17:39:25.278Z,34.37
2018-08-06T17:40:25.316Z,34.32
2018-08-06T17:42:18.212Z,34.37
2018-08-06T17:43:18.242Z,34.35
2018-08-06T17:45:11.202Z,34.32
2018-08-06T17:46:11.214Z,34.32
2018-08-06T17:48:04.162Z,34.22
2018-08-06T17:49:04.195Z,34.19
2018-08-06T17:50:57.146Z,34.15
2018-08-06T17:51:57.154Z,34.13
2018-08-06T17:53:50.087Z,34.13
2018-08-06T17:54:50.123Z,34.16
2018-08-06T17:56:43.067Z,34.08
2018-08-06T17:57:43.073Z,34.00
2018-08-06T17:59:36.100Z,34.02
2018-08-06T18:00:36.035Z,33.91
2018-08-06T18:02:28.961Z,33.91
2018-08-06T18:03:28.992Z,33.88
2018-08-06T18:05:21.982Z,33.82
2018-08-06T18:06:21.993Z,33.72
2018-08-06T18:08:14.946Z,33.69
2018-08-06T18:09:14.957Z,33.63
2018-08-06T18:11:07.900Z,33.54
2018-08-06T18:12:07.912Z,33.59
2018-08-06T18:14:00.843Z,33.54
2018-08-06T18:15:00.873Z,33.56
2018-08-06T18:16:53.822Z,33.51
2018-08-06T18:17:53.832Z,33.53
2018-08-06T18:19:46.781Z,33.39
2018-08-06T18:20:46.797Z,33.35
2018-08-06T18:22:39.722Z,33.22
2018-08-06T18:23:39.751Z,33.31
2018-08-06T18:25:32.706Z,33.16
2018-08-06T18:26:32.713Z,33.19
2018-08-06T18:28:25.656Z,33.14
2018-08-06T18:29:25.672Z,33.14
2018-08-06T18:31:18.620Z,33.15
2018-08-06T18:32:18.632Z,33.23
2018-08-06T18:34:11.561Z,33.22